createdAt,value
2018-06-21T00:00:55.141Z,77.60
2018-06-21T00:03:28.137Z,74.30
2018-06-21T00:06:01.232Z,74.30
2018-06-21T00:08:34.891Z,75.90
2018-06-21T00:11:08.021Z,76.70
2018-06-21T00:13:41.109Z,76.50
2018-06-21T00:16:14.205Z,76.30
2018-06-21T00:18:47.450Z,76.00
2018-06-21T00:21:21.418Z,75.80
2018-06-21T00:23:54.423Z,75.80
2018-06-21T00:26:28.304Z,75.60
2018-06-21T00:29:01.473Z,75.50
2018-06-21T00:31:34.643Z,75.50
2018-06-21T00:34:07.687Z,76.00
2018-06-21T00:36:40.774Z,75.20
2018-06-21T00:39:14.193Z,75.00
2018-06-21T00:41:47.310Z,75.10
2018-06-21T00:44:20.373Z,74.90
2018-06-21T00:46:53.420Z,75.30
2018-06-21T00:49:27.655Z,75.00
2018-06-21T00:52:00.717Z,75.10
2018-06-21T00:54:33.700Z,75.50
2018-06-21T00:57:06.771Z,75.40
2018-06-21T00:59:39.745Z,75.30
2018-06-21T01:02:12.701Z,75.90
2018-06-21T01:04:45.956Z,75.60
2018-06-21T01:07:19.085Z,76.20
2018-06-21T01:09:52.154Z,76.10
2018-06-21T01:12:25.798Z,76.10
2018-06-21T01:14:58.782Z,76.20
2018-06-21T01:17:32.019Z,76.20
2018-06-21T01:20:06.112Z,76.50
2018-06-21T01:25:11.000Z,76.90
2018-06-21T01:27:44.089Z,76.70
2018-06-21T01:30:17.096Z,76.70
2018-06-21T01:32:50.141Z,76.70
2018-06-21T01:35:23.361Z,76.90
2018-06-21T01:37:56.469Z,77.10
2018-06-21T01:40:29.571Z,76.80
2018-06-21T01:43:02.530Z,77.00
2018-06-21T01:45:35.592Z,77.00
2018-06-21T01:48:10.065Z,76.70
2018-06-21T01:50:43.268Z,77.10
2018-06-21T01:53:16.329Z,76.70
2018-06-21T01:55:49.405Z,76.90
2018-06-21T01:58:22.458Z,76.90
2018-06-21T02:00:57.679Z,77.10
2018-06-21T02:03:30.750Z,76.60
2018-06-21T02:06:04.341Z,76.40
2018-06-21T02:08:37.497Z,77.20
2018-06-21T02:11:10.492Z,76.10
2018-06-21T02:13:44.565Z,72.00
2018-06-21T02:16:17.628Z,71.10
2018-06-21T02:18:51.354Z,71.60
2018-06-21T02:21:24.356Z,71.30
2018-06-21T02:23:57.418Z,71.70
2018-06-21T02:26:30.404Z,71.50
2018-06-21T02:29:03.382Z,71.80
2018-06-21T02:31:36.475Z,71.80
2018-06-21T02:34:09.983Z,72.00
2018-06-21T02:36:43.058Z,72.40
2018-06-21T02:39:16.120Z,72.50
2018-06-21T02:41:49.168Z,72.60
2018-06-21T02:44:22.273Z,72.70
2018-06-21T02:46:55.503Z,72.70
2018-06-21T02:49:28.553Z,72.70
2018-06-21T02:52:01.809Z,72.80
2018-06-21T02:54:34.821Z,72.80
2018-06-21T02:57:10.662Z,72.80
2018-06-21T02:59:44.808Z,72.80
2018-06-21T03:02:17.813Z,72.90
2018-06-21T03:04:50.783Z,72.90
2018-06-21T03:07:23.765Z,73.00
2018-06-21T03:09:56.908Z,72.90
2018-06-21T03:12:29.960Z,72.90
2018-06-21T03:15:03.555Z,72.90
2018-06-21T03:17:36.600Z,72.90
2018-06-21T03:20:09.670Z,73.00
2018-06-21T03:22:42.676Z,72.90
2018-06-21T03:25:15.792Z,72.90
2018-06-21T03:27:49.260Z,73.10
2018-06-21T03:30:22.308Z,73.00
2018-06-21T03:32:55.470Z,73.00
2018-06-21T03:35:28.488Z,73.10
2018-06-21T03:38:01.957Z,73.00
2018-06-21T03:40:37.045Z,73.80
2018-06-21T03:43:10.201Z,73.10
2018-06-21T03:45:44.226Z,74.40
2018-06-21T03:48:17.436Z,73.20
2018-06-21T03:50:50.550Z,73.00
2018-06-21T03:53:24.461Z,73.10
2018-06-21T03:55:57.501Z,73.20
2018-06-21T03:58:31.213Z,73.30
2018-06-21T04:01:04.309Z,73.20
2018-06-21T04:03:37.280Z,73.30
2018-06-21T04:06:10.283Z,73.40
2018-06-21T04:08:43.375Z,73.90
2018-06-21T04:11:16.587Z,73.20
2018-06-21T04:13:49.608Z,73.30
2018-06-21T04:16:22.846Z,73.40
2018-06-21T04:18:55.897Z,73.30
2018-06-21T04:21:29.079Z,73.20
2018-06-21T04:24:02.319Z,73.00
2018-06-21T04:26:36.220Z,73.00
2018-06-21T04:29:09.313Z,73.00
2018-06-21T04:31:42.426Z,73.00
2018-06-21T04:34:15.548Z,72.80
2018-06-21T04:36:50.649Z,72.80
2018-06-21T04:39:23.712Z,72.60
2018-06-21T04:41:56.764Z,72.70
2018-06-21T04:44:30.398Z,72.70
2018-06-21T04:47:03.400Z,72.60
2018-06-21T04:49:36.824Z,72.50
2018-06-21T04:52:09.856Z,72.10
2018-06-21T04:54:43.194Z,72.40
2018-06-21T04:57:16.190Z,72.40
2018-06-21T04:59:49.689Z,72.40
2018-06-21T05:02:22.763Z,72.20
2018-06-21T05:04:56.655Z,72.20
2018-06-21T05:07:30.049Z,72.20
2018-06-21T05:10:03.079Z,73.10
2018-06-21T05:12:36.127Z,72.00
2018-06-21T05:15:09.160Z,72.10
2018-06-21T05:17:42.154Z,72.00
2018-06-21T05:20:15.260Z,71.90
2018-06-21T05:22:48.284Z,72.00
2018-06-21T05:25:21.310Z,72.00
2018-06-21T05:27:55.076Z,72.10
2018-06-21T05:30:28.141Z,72.10
2018-06-21T05:33:02.670Z,72.10
2018-06-21T05:35:35.645Z,72.10
2018-06-21T05:38:08.676Z,72.00
2018-06-21T05:40:41.670Z,72.00
2018-06-21T05:43:14.676Z,72.10
2018-06-21T05:45:48.273Z,71.90
2018-06-21T05:50:53.395Z,72.10
2018-06-21T05:53:26.485Z,72.00
2018-06-21T05:56:00.480Z,72.00
2018-06-21T05:58:33.503Z,72.00
2018-06-21T06:01:07.760Z,72.00
2018-06-21T06:03:41.261Z,72.00
2018-06-21T06:06:14.341Z,72.00
2018-06-21T06:08:48.541Z,71.90
2018-06-21T06:11:21.606Z,72.00
2018-06-21T06:13:54.585Z,72.00
2018-06-21T06:19:00.609Z,71.90
2018-06-21T06:21:33.755Z,71.90
2018-06-21T06:26:39.429Z,71.90
2018-06-21T06:29:13.367Z,71.90
2018-06-21T06:31:46.448Z,72.00
2018-06-21T06:34:19.460Z,71.90
2018-06-21T06:36:55.351Z,71.90
2018-06-21T06:39:29.702Z,71.90
2018-06-21T06:42:02.781Z,71.90
2018-06-21T06:44:35.846Z,71.90
2018-06-21T06:47:10.151Z,71.90
2018-06-21T06:49:43.236Z,71.90
2018-06-21T06:52:16.280Z,71.90
2018-06-21T06:54:49.335Z,72.00
2018-06-21T06:57:22.437Z,71.80
2018-06-21T06:59:56.130Z,71.90
2018-06-21T07:02:29.185Z,71.70
2018-06-21T07:05:02.324Z,71.90
2018-06-21T07:07:36.245Z,71.90
2018-06-21T07:12:41.389Z,71.90
2018-06-21T07:15:14.492Z,72.00
2018-06-21T07:17:47.599Z,71.90
2018-06-21T07:20:20.619Z,71.90
2018-06-21T07:22:53.644Z,71.90
2018-06-21T07:25:27.562Z,71.80
2018-06-21T07:28:00.691Z,71.90
2018-06-21T07:30:35.338Z,71.90
2018-06-21T07:33:08.526Z,71.80
2018-06-21T07:35:41.574Z,71.70
2018-06-21T07:38:15.407Z,71.80
2018-06-21T07:40:48.385Z,71.70
2018-06-21T07:43:22.821Z,71.80
2018-06-21T07:45:55.867Z,71.70
2018-06-21T07:48:29.215Z,71.80
2018-06-21T07:51:03.159Z,71.80
2018-06-21T07:53:36.145Z,71.70
2018-06-21T07:56:10.092Z,71.80
2018-06-21T07:58:43.320Z,71.80
2018-06-21T08:01:16.333Z,71.80
2018-06-21T08:03:49.381Z,71.70
2018-06-21T08:06:22.529Z,71.60
2018-06-21T08:08:57.342Z,71.60
2018-06-21T08:11:30.453Z,71.60
2018-06-21T08:14:03.522Z,71.50
2018-06-21T08:16:36.663Z,71.50
2018-06-21T08:19:10.016Z,71.50
2018-06-21T08:24:15.057Z,71.50
2018-06-21T08:26:48.284Z,71.50
2018-06-21T08:29:21.303Z,71.50
2018-06-21T08:31:54.429Z,71.50
2018-06-21T08:34:28.711Z,71.40
2018-06-21T08:37:01.808Z,71.40
2018-06-21T08:39:37.601Z,71.50
2018-06-21T08:42:10.754Z,71.40
2018-06-21T08:44:44.270Z,71.40
2018-06-21T08:47:17.376Z,71.50
2018-06-21T08:49:50.416Z,71.60
2018-06-21T08:52:23.964Z,71.70
2018-06-21T08:54:57.003Z,71.80
2018-06-21T08:57:29.968Z,71.90
2018-06-21T09:00:02.979Z,72.00
2018-06-21T09:02:36.216Z,72.20
2018-06-21T09:05:10.254Z,72.30
2018-06-21T09:07:43.370Z,72.40
2018-06-21T09:10:22.230Z,72.20
2018-06-21T09:12:56.128Z,72.30
2018-06-21T09:15:29.435Z,72.30
2018-06-21T09:18:03.847Z,72.50
2018-06-21T09:20:36.960Z,72.50
2018-06-21T09:23:10.133Z,72.60
2018-06-21T09:25:43.221Z,72.70
2018-06-21T09:28:16.375Z,72.70
2018-06-21T09:30:50.053Z,72.80
2018-06-21T09:33:23.239Z,72.70
2018-06-21T09:35:56.615Z,72.80
2018-06-21T09:38:33.950Z,72.80
2018-06-21T09:41:11.125Z,72.90
2018-06-21T09:46:33.875Z,73.00
2018-06-21T09:48:57.636Z,72.90
2018-06-21T09:51:30.709Z,73.00
2018-06-21T09:54:04.135Z,73.10
2018-06-21T09:56:37.243Z,73.20
2018-06-21T09:59:10.286Z,73.20
2018-06-21T10:01:43.715Z,73.30
2018-06-21T10:04:17.675Z,73.20
2018-06-21T10:06:50.658Z,73.30
2018-06-21T10:09:23.695Z,73.50
2018-06-21T10:11:56.802Z,73.50
2018-06-21T10:14:30.380Z,73.50
2018-06-21T10:17:03.458Z,73.60
2018-06-21T10:19:36.665Z,73.50
2018-06-21T10:24:41.646Z,73.60
2018-06-21T10:27:14.728Z,73.60
2018-06-21T10:29:47.807Z,73.60
2018-06-21T10:32:20.873Z,73.70
2018-06-21T10:34:54.039Z,73.70
2018-06-21T10:37:27.187Z,73.70
2018-06-21T10:40:00.197Z,73.70
2018-06-21T10:42:34.143Z,73.90
2018-06-21T10:47:40.949Z,74.00
2018-06-21T10:50:14.005Z,74.10
2018-06-21T10:52:47.024Z,74.10
2018-06-21T10:55:20.057Z,74.10
2018-06-21T10:57:53.054Z,74.10
2018-06-21T11:00:26.141Z,74.10
2018-06-21T11:02:59.216Z,74.20
2018-06-21T11:05:32.280Z,74.10
2018-06-21T11:08:05.325Z,74.10
2018-06-21T11:10:39.564Z,74.20
2018-06-21T11:13:12.745Z,74.10
2018-06-21T11:15:45.853Z,74.10
2018-06-21T11:18:19.088Z,74.10
2018-06-21T11:20:52.154Z,74.10
2018-06-21T11:23:26.434Z,74.30
2018-06-21T11:25:59.500Z,74.30
2018-06-21T11:28:32.516Z,74.20
2018-06-21T11:31:05.543Z,74.20
2018-06-21T11:33:38.505Z,74.50
2018-06-21T11:36:11.533Z,74.50
2018-06-21T11:38:44.557Z,74.40
2018-06-21T11:41:18.197Z,74.20
2018-06-21T11:43:51.770Z,74.20
2018-06-21T11:46:24.809Z,74.20
2018-06-21T11:48:58.189Z,74.10
2018-06-21T11:51:31.229Z,74.20
2018-06-21T12:29:30.507Z,74.20
2018-06-21T12:32:04.430Z,74.20
2018-06-21T12:34:37.494Z,74.00
2018-06-21T12:37:10.736Z,74.10
2018-06-21T12:39:43.872Z,74.10
2018-06-21T12:42:16.932Z,74.20
2018-06-21T12:44:50.112Z,74.30
2018-06-21T12:47:23.218Z,74.40
2018-06-21T12:49:56.878Z,74.40
2018-06-21T12:52:29.987Z,74.60
2018-06-21T12:55:03.173Z,74.40
2018-06-21T12:57:36.198Z,74.50
2018-06-21T13:00:09.527Z,74.60
2018-06-21T13:02:44.064Z,74.40
2018-06-21T13:05:17.106Z,74.30
2018-06-21T13:07:50.653Z,74.60
2018-06-21T13:10:32.519Z,74.60
2018-06-21T13:13:16.491Z,74.60
2018-06-21T13:15:50.084Z,74.70
2018-06-21T13:18:23.203Z,74.60
2018-06-21T13:20:56.250Z,74.60
2018-06-21T13:23:29.374Z,74.70
2018-06-21T13:26:02.376Z,74.80
2018-06-21T13:28:36.011Z,74.80
2018-06-21T13:31:09.108Z,74.70
2018-06-21T13:33:42.428Z,74.60
2018-06-21T13:36:15.501Z,74.60
2018-06-21T13:38:49.470Z,74.70
2018-06-21T13:41:22.485Z,74.60
2018-06-21T13:43:55.646Z,74.60
2018-06-21T13:46:29.005Z,74.50
2018-06-21T13:49:01.979Z,74.50
2018-06-21T13:51:34.982Z,74.50
2018-06-21T13:54:08.080Z,74.40
2018-06-21T13:56:41.230Z,74.40
2018-06-21T13:59:14.270Z,74.40
2018-06-21T14:01:47.368Z,74.40
2018-06-21T14:04:21.186Z,74.20
2018-06-21T14:06:54.232Z,74.00
2018-06-21T14:09:27.485Z,74.20
2018-06-21T14:12:01.162Z,74.20
2018-06-21T14:14:35.166Z,74.40
2018-06-21T14:17:09.133Z,74.40
2018-06-21T14:19:42.212Z,74.40
2018-06-21T14:22:15.315Z,74.40
2018-06-21T14:24:48.817Z,74.40
2018-06-21T14:27:21.981Z,74.50
2018-06-21T14:29:55.109Z,74.40
2018-06-21T14:32:28.960Z,74.50
2018-06-21T14:35:01.957Z,74.50
2018-06-21T14:37:35.056Z,74.50
2018-06-21T14:40:08.145Z,74.60
2018-06-21T14:42:41.661Z,74.80
2018-06-21T14:45:14.880Z,74.90
2018-06-21T14:47:47.940Z,74.90
2018-06-21T14:50:21.145Z,75.00
2018-06-21T14:52:54.225Z,75.10
2018-06-21T14:55:29.125Z,75.00
2018-06-21T14:58:02.417Z,75.00
2018-06-21T15:00:35.372Z,75.10
2018-06-21T15:03:08.457Z,75.10
2018-06-21T15:05:41.496Z,75.10
2018-06-21T15:08:14.674Z,74.00
2018-06-21T15:10:47.757Z,70.90
2018-06-21T15:13:20.873Z,68.50
2018-06-21T15:15:53.956Z,66.40
2018-06-21T15:18:26.936Z,64.30
2018-06-21T15:21:00.973Z,62.80
2018-06-21T15:28:37.401Z,59.10
2018-06-21T15:31:10.451Z,58.10
2018-06-21T15:33:43.425Z,60.50
2018-06-21T15:36:16.602Z,60.20
2018-06-21T15:41:23.068Z,58.90
2018-06-21T15:46:28.029Z,58.80
2018-06-21T15:49:01.038Z,57.80
2018-06-21T15:51:34.483Z,57.20
2018-06-21T15:54:07.545Z,55.60
2018-06-21T15:56:40.600Z,54.90
2018-06-21T15:59:13.681Z,54.10
2018-06-21T16:01:46.642Z,53.60
2018-06-21T16:04:19.685Z,53.30
2018-06-21T16:06:52.745Z,53.90
2018-06-21T16:11:58.025Z,58.40
2018-06-21T16:14:31.036Z,57.90
2018-06-21T16:17:04.040Z,56.60
2018-06-21T16:19:38.093Z,55.80
2018-06-21T16:22:11.659Z,55.70
2018-06-21T16:24:44.760Z,58.10
2018-06-21T16:27:17.768Z,60.00
2018-06-21T16:29:50.874Z,59.50
2018-06-21T16:32:23.936Z,57.80
2018-06-21T16:37:28.813Z,57.70
2018-06-21T16:40:01.845Z,59.70
2018-06-21T16:42:34.902Z,61.60
2018-06-21T16:45:09.153Z,60.00
2018-06-21T16:47:43.722Z,58.10
2018-06-21T16:50:16.798Z,56.80
2018-06-21T16:52:51.400Z,57.80
2018-06-21T16:55:25.606Z,59.80
2018-06-21T16:57:58.711Z,61.60
2018-06-21T17:00:31.704Z,59.40
2018-06-21T17:03:04.665Z,57.90
2018-06-21T17:05:38.198Z,58.80
2018-06-21T17:08:11.244Z,61.00
2018-06-21T17:10:44.349Z,62.50
2018-06-21T17:13:18.553Z,60.60
2018-06-21T17:15:51.634Z,59.60
2018-06-21T17:18:25.877Z,61.90
2018-06-21T17:20:59.954Z,63.90
2018-06-21T17:23:33.045Z,63.00
2018-06-21T17:26:06.155Z,60.50
2018-06-21T17:28:39.294Z,62.20
2018-06-21T17:31:12.815Z,64.20
2018-06-21T17:33:45.960Z,65.60
2018-06-21T17:36:19.045Z,62.00
2018-06-21T17:38:52.017Z,62.10
2018-06-21T17:41:25.324Z,64.30
2018-06-21T17:43:58.395Z,66.00
2018-06-21T17:46:31.532Z,63.80
2018-06-21T17:49:05.626Z,61.10
2018-06-21T17:51:38.731Z,63.30
2018-06-21T17:54:12.672Z,65.00
2018-06-21T17:56:46.597Z,65.90
2018-06-21T17:59:19.689Z,62.40
2018-06-21T18:01:53.028Z,63.60
2018-06-21T18:04:26.060Z,65.50
2018-06-21T18:06:59.063Z,66.80
2018-06-21T18:09:32.140Z,63.90
2018-06-21T18:12:05.251Z,65.70
2018-06-21T18:17:10.464Z,68.00
2018-06-21T18:19:44.303Z,64.90
2018-06-21T18:22:17.423Z,66.80
2018-06-21T18:24:50.566Z,68.00
2018-06-21T18:27:24.431Z,67.20
2018-06-21T18:29:57.466Z,65.80
2018-06-21T18:32:31.219Z,67.40
2018-06-21T18:35:04.184Z,68.50
2018-06-21T18:37:37.284Z,67.20
2018-06-21T18:40:11.769Z,66.10
2018-06-21T18:42:44.854Z,67.80
2018-06-21T18:45:17.982Z,69.10
2018-06-21T18:47:51.750Z,67.30
2018-06-21T18:50:25.973Z,65.90
2018-06-21T18:53:00.528Z,67.80
2018-06-21T18:55:34.353Z,69.20
2018-06-21T18:58:07.940Z,67.30
2018-06-21T19:00:41.024Z,66.70
2018-06-21T19:03:14.448Z,68.20
2018-06-21T19:05:48.445Z,69.50
2018-06-21T19:08:25.680Z,67.40
2018-06-21T19:11:02.862Z,66.80
2018-06-21T19:13:36.286Z,68.50
2018-06-21T19:16:09.270Z,69.70
2018-06-21T19:18:42.296Z,67.00
2018-06-21T19:23:47.907Z,69.00
2018-06-21T19:26:20.972Z,70.20
2018-06-21T19:28:55.168Z,67.00
2018-06-21T19:33:59.855Z,69.80
2018-06-21T19:39:05.663Z,67.30
2018-06-21T19:41:39.150Z,67.80
2018-06-21T19:44:13.575Z,69.40
2018-06-21T19:46:46.577Z,71.30
2018-06-21T19:49:21.860Z,66.80
2018-06-21T19:51:54.824Z,68.40
2018-06-21T19:54:27.968Z,69.70
2018-06-21T19:57:00.980Z,70.60
2018-06-21T19:59:34.847Z,67.30
2018-06-21T20:02:07.952Z,69.00
2018-06-21T20:04:41.005Z,70.10
2018-06-21T20:07:14.631Z,70.20
2018-06-21T20:09:47.690Z,67.80
2018-06-21T20:12:20.837Z,69.60
2018-06-21T20:14:53.920Z,72.40
2018-06-21T20:17:26.954Z,69.00
2018-06-21T20:20:04.245Z,68.50
2018-06-21T20:22:37.264Z,70.10
2018-06-21T20:25:10.282Z,71.10
2018-06-21T20:27:43.408Z,68.50
2018-06-21T20:30:16.397Z,69.00
2018-06-21T20:32:50.025Z,70.30
2018-06-21T20:35:23.068Z,71.20
2018-06-21T20:37:56.110Z,68.90
2018-06-21T20:40:29.121Z,70.00
2018-06-21T20:43:02.090Z,71.00
2018-06-21T20:45:35.180Z,70.70
2018-06-21T20:48:08.247Z,68.70
2018-06-21T20:53:13.920Z,71.40
2018-06-21T20:55:47.993Z,69.60
2018-06-21T20:58:21.016Z,69.50
2018-06-21T21:00:54.028Z,70.80
2018-06-21T21:03:27.890Z,71.80
2018-06-21T21:06:01.017Z,69.10
2018-06-21T21:08:33.997Z,70.20
2018-06-21T21:11:07.046Z,71.40
2018-06-21T21:13:40.166Z,72.20
2018-06-21T21:18:45.859Z,71.00
2018-06-21T21:21:18.962Z,72.30
2018-06-21T21:23:52.014Z,70.70
2018-06-21T21:26:25.024Z,69.90
2018-06-21T21:28:59.209Z,71.10
2018-06-21T21:31:32.394Z,72.60
2018-06-21T21:34:05.453Z,69.60
2018-06-21T21:36:38.521Z,70.70
2018-06-21T21:39:12.852Z,71.80
2018-06-21T21:41:49.495Z,72.80
2018-06-21T21:44:22.580Z,69.40
2018-06-21T21:46:56.369Z,71.30
2018-06-21T21:49:29.388Z,72.70
2018-06-21T21:52:02.438Z,71.80
2018-06-21T21:54:35.565Z,70.30
2018-06-21T21:57:08.629Z,71.60
2018-06-21T21:59:42.089Z,72.70
2018-06-21T22:02:15.106Z,70.30
2018-06-21T22:04:48.735Z,70.70
2018-06-21T22:07:21.774Z,71.80
2018-06-21T22:09:54.774Z,72.90
2018-06-21T22:12:28.867Z,70.50
2018-06-21T22:15:01.886Z,72.10
2018-06-21T22:17:34.870Z,73.20
2018-06-21T22:20:07.979Z,71.90
2018-06-21T22:22:41.018Z,71.10
2018-06-21T22:25:14.122Z,72.40
2018-06-21T22:27:47.230Z,73.50
2018-06-21T22:30:20.335Z,70.70
2018-06-21T22:32:54.248Z,71.60
2018-06-21T22:35:27.226Z,73.00
2018-06-21T22:38:00.389Z,73.60
2018-06-21T22:40:33.459Z,70.10
2018-06-21T22:43:06.961Z,71.50
2018-06-21T22:45:40.001Z,72.70
2018-06-21T22:48:13.023Z,72.20
2018-06-21T22:50:46.092Z,73.30
2018-06-21T23:19:09.380Z,74.30
2018-06-21T23:21:43.078Z,74.20
2018-06-21T23:24:16.193Z,72.60
2018-06-21T23:26:50.009Z,70.50
2018-06-21T23:29:23.214Z,72.50
2018-06-21T23:31:56.268Z,73.80
2018-06-21T23:34:31.337Z,72.40
2018-06-21T23:37:04.421Z,73.50
2018-06-21T23:39:37.458Z,74.80
2018-06-21T23:42:10.604Z,74.90
2018-06-21T23:44:43.567Z,74.40
2018-06-21T23:49:48.846Z,73.80
2018-06-21T23:54:54.148Z,73.60
2018-06-21T23:57:27.153Z,73.40
